Terminal Aerodrome Forecast
Issued by NWS Caribou, ME

Home | Current Version | Previous Version | Text Only | Print | Product List | Glossary On
Versions: 1 2 3 4 5 6 7 8 9 10 11 12 13 14 15 16 17 18 19 20 21 22 23
850
FTUS41 KCAR 050532
TAFCAR
TAF
KCAR 050532Z 0506/0606 VRB03KT P6SM FEW250
     FM050900 00000KT 4SM BR FEW015
     FM051300 00000KT P6SM FEW200
     FM060300 00000KT P6SM OVC045=

USA.gov is the U.S. government's official web portal to all federal, state and local government web resources and services.